createdAt,value
2016-08-31T00:00:15.568Z,73.75
2016-08-31T00:01:16.184Z,72.79
2016-08-31T00:02:16.152Z,73.56
2016-08-31T00:03:16.125Z,73.66
2016-08-31T00:04:17.122Z,73.46
2016-08-31T00:05:16.057Z,73.46
2016-08-31T00:06:16.037Z,73.56
2016-08-31T00:07:15.310Z,73.27
2016-08-31T00:08:15.961Z,73.46
2016-08-31T00:09:15.936Z,73.27
2016-08-31T00:10:15.904Z,73.46
2016-08-31T00:11:15.873Z,73.37
2016-08-31T00:12:15.841Z,73.37
2016-08-31T00:13:15.811Z,73.56
2016-08-31T00:14:15.784Z,73.08
2016-08-31T00:15:15.051Z,73.66
2016-08-31T00:16:15.718Z,73.46
2016-08-31T00:17:15.687Z,73.75
2016-08-31T00:18:14.961Z,73.37
2016-08-31T00:19:15.626Z,73.46
2016-08-31T00:20:15.901Z,73.18
2016-08-31T00:21:14.868Z,73.75
2016-08-31T00:22:15.533Z,74.23
2016-08-31T00:23:15.502Z,73.56
2016-08-31T00:24:15.473Z,73.66
2016-08-31T00:25:14.750Z,73.52
2016-08-31T00:26:15.406Z,74.04
2016-08-31T00:27:15.379Z,74.01
2016-08-31T00:28:14.650Z,73.85
2016-08-31T00:29:15.316Z,74.13
2016-08-31T00:30:15.285Z,74.04
2016-08-31T00:31:14.560Z,73.81
2016-08-31T00:32:14.530Z,73.91
2016-08-31T00:33:15.194Z,74.1
2016-08-31T00:34:15.162Z,74.68
2016-08-31T00:35:15.131Z,74.39
2016-08-31T00:36:15.100Z,74.58
2016-08-31T00:37:15.070Z,74.19
2016-08-31T00:38:15.042Z,74.29
2016-08-31T00:39:15.005Z,74.87
2016-08-31T00:40:14.280Z,74.87
2016-08-31T00:41:14.946Z,74.87
2016-08-31T00:42:14.217Z,74.68
2016-08-31T00:43:14.885Z,74.39
2016-08-31T00:44:14.852Z,74.96
2016-08-31T00:45:14.129Z,74.96
2016-08-31T00:46:14.097Z,75.06
2016-08-31T00:47:14.060Z,75.06
2016-08-31T00:48:14.729Z,75.25
2016-08-31T00:49:14.694Z,75.25
2016-08-31T00:50:14.665Z,75.82
2016-08-31T00:51:14.634Z,75.54
2016-08-31T00:52:13.908Z,75.54
2016-08-31T00:53:13.877Z,75.54
2016-08-31T00:54:14.543Z,75.63
2016-08-31T00:55:14.507Z,75.45
2016-08-31T00:56:14.482Z,75.73
2016-08-31T00:57:13.751Z,76.02
2016-08-31T00:58:14.429Z,76.02
2016-08-31T00:59:14.393Z,75.73
2016-08-31T01:00:13.656Z,75.92
2016-08-31T01:01:14.324Z,76.5
2016-08-31T01:02:14.294Z,76.46
2016-08-31T01:03:14.260Z,76.59
2016-08-31T01:04:14.229Z,76.46
2016-08-31T01:05:14.203Z,76.37
2016-08-31T01:06:13.473Z,76.27
2016-08-31T01:07:14.146Z,76.27
2016-08-31T01:08:13.414Z,76.56
2016-08-31T01:09:13.379Z,77.04
2016-08-31T01:10:14.285Z,76.84
2016-08-31T01:11:14.014Z,76.94
2016-08-31T01:12:13.985Z,76.69
2016-08-31T01:13:13.952Z,76.94
2016-08-31T01:14:13.925Z,77.04
2016-08-31T01:15:13.890Z,76.94
2016-08-31T01:16:13.158Z,77.04
2016-08-31T01:17:13.829Z,76.94
2016-08-31T01:18:13.803Z,76.84
2016-08-31T01:19:13.067Z,77.61
2016-08-31T01:20:13.758Z,77.04
2016-08-31T01:21:13.708Z,77.8
2016-08-31T01:22:13.672Z,77.04
2016-08-31T01:23:12.947Z,77.42
2016-08-31T01:24:13.614Z,77.51
2016-08-31T01:25:13.582Z,77.42
2016-08-31T01:26:13.550Z,77.61
2016-08-31T01:27:13.517Z,77.51
2016-08-31T01:28:13.486Z,77.71
2016-08-31T01:29:13.492Z,77.9
2016-08-31T01:30:13.473Z,77.8
2016-08-31T01:31:12.693Z,78.09
2016-08-31T01:32:13.361Z,78.38
2016-08-31T01:33:13.330Z,78.28
2016-08-31T01:34:13.307Z,78.25
2016-08-31T01:35:13.267Z,78.28
2016-08-31T01:36:13.234Z,79.14
2016-08-31T01:37:13.205Z,78.72
2016-08-31T01:38:13.173Z,78.72
2016-08-31T01:39:13.147Z,78.72
2016-08-31T01:40:12.813Z,78.72
2016-08-31T01:41:13.102Z,78.44
2016-08-31T01:42:12.352Z,78.92
2016-08-31T01:43:13.018Z,78.63
2016-08-31T01:44:12.988Z,79.11
2016-08-31T01:45:12.957Z,79.11
2016-08-31T01:46:12.229Z,79.01
2016-08-31T01:47:12.894Z,79.39
2016-08-31T01:48:12.863Z,79.39
2016-08-31T01:49:12.839Z,79.21
2016-08-31T01:50:12.798Z,79.78
2016-08-31T01:51:12.768Z,79.49
2016-08-31T01:52:12.751Z,79.39
2016-08-31T01:53:12.708Z,79.78
2016-08-31T01:54:12.677Z,79.78
2016-08-31T01:55:12.644Z,79.68
2016-08-31T01:56:12.614Z,79.68
2016-08-31T01:57:12.579Z,79.59
2016-08-31T01:58:11.850Z,79.78
2016-08-31T01:59:12.518Z,79.59
2016-08-31T02:00:12.489Z,79.78
2016-08-31T02:01:12.460Z,79.59
2016-08-31T02:02:12.431Z,80.26
2016-08-31T02:03:12.397Z,79.97
2016-08-31T02:04:12.363Z,80.07
2016-08-31T02:05:12.366Z,79.97
2016-08-31T02:06:11.600Z,79.68
2016-08-31T02:07:11.574Z,80.16
2016-08-31T02:08:12.237Z,80.45
2016-08-31T02:09:12.211Z,81.02
2016-08-31T02:10:12.174Z,80.45
2016-08-31T02:11:12.141Z,80.83
2016-08-31T02:12:12.111Z,81.12
2016-08-31T02:13:11.383Z,80.93
2016-08-31T02:14:11.350Z,81.41
2016-08-31T02:15:12.013Z,81.31
2016-08-31T02:16:11.983Z,81.85
2016-08-31T02:17:11.954Z,81.75
2016-08-31T02:18:11.924Z,81.66
2016-08-31T02:19:11.889Z,81.75
2016-08-31T02:20:12.292Z,82.23
2016-08-31T02:21:11.832Z,82.23
2016-08-31T02:22:11.793Z,81.85
2016-08-31T02:23:11.766Z,82.32
2016-08-31T02:24:11.734Z,82.42
2016-08-31T02:25:11.705Z,82.42
2016-08-31T02:26:10.995Z,82.62
2016-08-31T02:27:11.637Z,82.71
2016-08-31T02:28:10.913Z,83.29
2016-08-31T02:29:11.580Z,83.38
2016-08-31T02:30:11.593Z,83.34
2016-08-31T02:31:11.513Z,83.34
2016-08-31T02:32:11.479Z,84.2
2016-08-31T02:33:11.451Z,83.92
2016-08-31T02:34:11.418Z,84.01
2016-08-31T02:35:10.690Z,83.72
2016-08-31T02:36:11.356Z,84.01
2016-08-31T02:37:10.627Z,84.3
2016-08-31T02:38:11.292Z,83.92
2016-08-31T02:39:11.260Z,84.68
2016-08-31T02:40:10.531Z,84.58
2016-08-31T02:41:10.521Z,84.58
2016-08-31T02:42:11.163Z,84.88
2016-08-31T02:43:10.439Z,85.06
2016-08-31T02:44:11.101Z,84.97
2016-08-31T02:45:11.069Z,85.16
2016-08-31T02:46:10.345Z,85.06
2016-08-31T02:47:11.010Z,84.3
2016-08-31T02:48:10.977Z,85.06
2016-08-31T02:49:10.247Z,85.16
2016-08-31T02:50:11.404Z,85.06
2016-08-31T02:51:10.877Z,85.35
2016-08-31T02:52:10.847Z,85.35
2016-08-31T02:53:10.120Z,85.83
2016-08-31T02:54:10.785Z,85.74
2016-08-31T02:55:10.054Z,85.64
2016-08-31T02:56:10.719Z,86.12
2016-08-31T02:57:10.691Z,86.27
2016-08-31T02:58:10.666Z,85.88
2016-08-31T02:59:10.622Z,85.98
2016-08-31T03:00:09.915Z,86.17
2016-08-31T03:01:09.863Z,86.55
2016-08-31T03:02:10.528Z,86.65
2016-08-31T03:03:10.501Z,87.13
2016-08-31T03:04:10.473Z,86.94
2016-08-31T03:05:10.436Z,87.13
2016-08-31T03:06:10.401Z,87.41
2016-08-31T03:07:10.366Z,87.13
2016-08-31T03:08:10.335Z,87.7
2016-08-31T03:09:10.305Z,87.61
2016-08-31T03:10:10.271Z,87.66
2016-08-31T03:11:09.543Z,87.61
2016-08-31T03:12:09.519Z,88.09
2016-08-31T03:13:10.175Z,88.04
2016-08-31T03:14:10.143Z,88.04
2016-08-31T03:15:10.114Z,88.33
2016-08-31T03:16:09.383Z,88.33
2016-08-31T03:17:10.046Z,88.33
2016-08-31T03:18:10.015Z,88.33
2016-08-31T03:19:09.286Z,88.71
2016-08-31T03:20:09.949Z,89
2016-08-31T03:21:09.914Z,88.9
2016-08-31T03:22:09.893Z,89
2016-08-31T03:23:09.852Z,88.81
2016-08-31T03:24:09.821Z,88.9
2016-08-31T03:25:09.091Z,89.09
2016-08-31T03:26:09.757Z,89.48
2016-08-31T03:27:09.723Z,89.19
2016-08-31T03:28:09.693Z,89.48
2016-08-31T03:29:08.961Z,89.48
2016-08-31T03:30:09.626Z,89.58
2016-08-31T03:31:09.592Z,89.76
2016-08-31T03:32:09.559Z,89.76
2016-08-31T03:33:09.529Z,89.67
2016-08-31T03:34:08.800Z,89.58
2016-08-31T03:35:08.769Z,89.86
2016-08-31T03:36:09.432Z,90.15
2016-08-31T03:37:09.403Z,89.95
2016-08-31T03:38:09.367Z,90.24
2016-08-31T03:39:08.640Z,90.44
2016-08-31T03:40:09.452Z,90.05
2016-08-31T03:41:09.268Z,90.53
2016-08-31T03:42:09.238Z,90.3
2016-08-31T03:43:08.511Z,91.06
2016-08-31T03:44:08.479Z,90.87
2016-08-31T03:45:09.146Z,90.3
2016-08-31T03:46:09.109Z,91.16
2016-08-31T03:47:08.378Z,90.96
2016-08-31T03:48:09.043Z,91.25
2016-08-31T03:49:08.316Z,90.96
2016-08-31T03:50:08.978Z,91.25
2016-08-31T03:51:08.255Z,91.06
2016-08-31T03:52:08.918Z,91.06
2016-08-31T03:53:08.882Z,91.35
2016-08-31T03:54:08.857Z,90.96
2016-08-31T03:55:08.124Z,91.16
2016-08-31T03:56:08.089Z,91.53
2016-08-31T03:57:08.054Z,91.53
2016-08-31T03:58:08.716Z,91.06
2016-08-31T03:59:08.685Z,91.16
2016-08-31T04:00:07.961Z,91.06
2016-08-31T04:01:07.921Z,91.35
2016-08-31T04:02:08.587Z,91.35
2016-08-31T04:03:08.556Z,91.63
2016-08-31T04:04:08.529Z,91.16
2016-08-31T04:05:07.792Z,91.53
2016-08-31T04:06:07.760Z,91.83
2016-08-31T04:07:08.423Z,91.73
2016-08-31T04:08:08.389Z,92.02
2016-08-31T04:09:08.358Z,91.63
2016-08-31T04:10:08.326Z,91.53
2016-08-31T04:11:08.306Z,91.73
2016-08-31T04:12:08.260Z,91.83
2016-08-31T04:13:07.529Z,92.49
2016-08-31T04:14:08.195Z,92.11
2016-08-31T04:15:08.164Z,92.21
2016-08-31T04:16:08.129Z,92.4
2016-08-31T04:17:08.103Z,92.11
2016-08-31T04:18:07.371Z,92.11
2016-08-31T04:19:08.032Z,92.3
2016-08-31T04:20:07.304Z,92.11
2016-08-31T04:21:07.963Z,92.02
2016-08-31T04:22:07.938Z,92.4
2016-08-31T04:23:07.917Z,92.11
2016-08-31T04:24:07.870Z,92.4
2016-08-31T04:25:07.839Z,91.92
2016-08-31T04:26:22.111Z,92.3
2016-08-31T04:27:07.771Z,92.49
2016-08-31T04:28:07.741Z,92.21
2016-08-31T04:29:07.012Z,92.49
2016-08-31T04:30:07.672Z,91.73
2016-08-31T04:31:06.945Z,91.44
2016-08-31T04:32:07.609Z,91.53
2016-08-31T04:33:07.576Z,91.53
2016-08-31T04:34:07.542Z,91.92
2016-08-31T04:35:06.816Z,91.77
2016-08-31T04:36:07.489Z,91.49
2016-08-31T04:37:07.446Z,91.49
2016-08-31T04:38:07.413Z,91.49
2016-08-31T04:39:06.684Z,91.3
2016-08-31T04:40:07.350Z,91.3
2016-08-31T04:41:07.326Z,91.11
2016-08-31T04:42:07.287Z,91.58
2016-08-31T04:43:07.254Z,91.3
2016-08-31T04:44:07.227Z,91.3
2016-08-31T04:45:07.189Z,91.11
2016-08-31T04:46:07.152Z,91.11
2016-08-31T04:47:07.124Z,91.11
2016-08-31T04:48:07.090Z,90.34
2016-08-31T04:49:07.057Z,90.96
2016-08-31T04:50:07.027Z,90.39
2016-08-31T04:51:06.297Z,90.19
2016-08-31T04:52:06.958Z,90.39
2016-08-31T04:53:06.927Z,90.09
2016-08-31T04:54:06.896Z,90.09
2016-08-31T04:55:07.367Z,89.62
2016-08-31T04:56:06.830Z,89.62
2016-08-31T04:57:06.798Z,89.81
2016-08-31T04:58:06.775Z,89.52
2016-08-31T04:59:06.733Z,89.81
2016-08-31T05:00:06.705Z,89.52
2016-08-31T05:01:06.683Z,89.14
2016-08-31T05:02:06.638Z,89.33
2016-08-31T05:03:06.608Z,89.14
2016-08-31T05:04:05.880Z,89.14
2016-08-31T05:05:06.545Z,89.14
2016-08-31T05:06:06.510Z,88.85
2016-08-31T05:07:06.477Z,88.9
2016-08-31T05:08:05.748Z,88.9
2016-08-31T05:09:06.440Z,89.18
2016-08-31T05:10:05.685Z,88.9
2016-08-31T05:11:06.348Z,88.42
2016-08-31T05:12:06.319Z,88.61
2016-08-31T05:13:06.286Z,88.42
2016-08-31T05:14:06.253Z,88.23
2016-08-31T05:15:06.230Z,87.94
2016-08-31T05:16:06.190Z,87.84
2016-08-31T05:17:06.162Z,87.84
2016-08-31T05:18:06.127Z,87.65
2016-08-31T05:19:05.397Z,87.84
2016-08-31T05:20:06.061Z,88.13
2016-08-31T05:21:06.035Z,87.74
2016-08-31T05:22:06.000Z,87.37
2016-08-31T05:23:05.270Z,87.46
2016-08-31T05:24:05.241Z,86.93
2016-08-31T05:25:05.904Z,86.69
2016-08-31T05:26:05.873Z,87.02
2016-08-31T05:27:05.147Z,86.64
2016-08-31T05:28:05.808Z,86.54
2016-08-31T05:29:05.776Z,86.54
2016-08-31T05:30:05.769Z,86.35
2016-08-31T05:31:05.709Z,86.07
2016-08-31T05:32:05.681Z,86.16
2016-08-31T05:33:05.648Z,85.88
2016-08-31T05:34:05.621Z,85.68
2016-08-31T05:35:05.589Z,85.49
2016-08-31T05:36:05.553Z,85.21
2016-08-31T05:37:05.525Z,85.39
2016-08-31T05:38:05.493Z,84.63
2016-08-31T05:39:04.766Z,85.05
2016-08-31T05:40:05.429Z,84.67
2016-08-31T05:41:05.397Z,84.19
2016-08-31T05:42:05.365Z,84.67
2016-08-31T05:43:04.638Z,84.86
2016-08-31T05:44:04.611Z,84.77
2016-08-31T05:45:05.355Z,84.28
2016-08-31T05:46:05.240Z,84.28
2016-08-31T05:47:05.210Z,84.09
2016-08-31T05:48:05.179Z,84.09
2016-08-31T05:49:04.453Z,83.91
2016-08-31T05:50:05.118Z,83.81
2016-08-31T05:51:05.085Z,83.42
2016-08-31T05:52:05.054Z,83.33
2016-08-31T05:53:05.026Z,82.98
2016-08-31T05:54:04.991Z,82.89
2016-08-31T05:55:05.175Z,82.79
2016-08-31T05:56:04.933Z,82.51
2016-08-31T05:57:04.921Z,82.51
2016-08-31T05:58:04.869Z,82.41
2016-08-31T05:59:06.305Z,82.6
2016-08-31T06:00:05.209Z,82.03
2016-08-31T06:01:04.774Z,82.21
2016-08-31T06:02:04.746Z,81.93
2016-08-31T06:03:04.714Z,82.12
2016-08-31T06:04:03.993Z,81.84
2016-08-31T06:05:04.816Z,81.74
2016-08-31T06:06:05.570Z,81.59
2016-08-31T06:07:04.590Z,82.07
2016-08-31T06:08:04.557Z,81.49
2016-08-31T06:09:04.527Z,81.4
2016-08-31T06:10:05.950Z,81.2
2016-08-31T06:11:04.467Z,80.82
2016-08-31T06:12:03.738Z,80.63
2016-08-31T06:13:04.406Z,80.53
2016-08-31T06:14:03.677Z,80.24
2016-08-31T06:15:04.343Z,80.09
2016-08-31T06:16:04.310Z,79.9
2016-08-31T06:17:03.589Z,79.52
2016-08-31T06:18:04.251Z,79.42
2016-08-31T06:19:04.217Z,79.13
2016-08-31T06:20:04.262Z,78.65
2016-08-31T06:21:04.160Z,77.98
2016-08-31T06:22:03.432Z,78.27
2016-08-31T06:23:03.401Z,77.73
2016-08-31T06:24:04.070Z,77.92
2016-08-31T06:25:05.009Z,77.53
2016-08-31T06:26:04.012Z,77.34
2016-08-31T06:27:03.976Z,76.39
2016-08-31T06:28:03.948Z,76.39
2016-08-31T06:29:03.919Z,75.71
2016-08-31T06:30:03.370Z,75.46
2016-08-31T06:31:03.855Z,74.69
2016-08-31T06:32:03.160Z,73.92
2016-08-31T06:33:03.102Z,73.47
2016-08-31T06:34:03.767Z,72.03
2016-08-31T06:35:03.739Z,71.11
2016-08-31T06:36:03.057Z,69.99
2016-08-31T06:37:02.982Z,68.68
2016-08-31T06:38:02.954Z,67.46
2016-08-31T06:39:02.923Z,66.33
2016-08-31T06:40:03.596Z,65.27
2016-08-31T06:41:02.875Z,63.85
2016-08-31T06:42:03.536Z,62.63
2016-08-31T06:43:03.504Z,61.67
2016-08-31T06:44:03.485Z,61.41
2016-08-31T06:45:03.673Z,60.54
2016-08-31T06:46:03.569Z,58.73
2016-08-31T06:47:03.401Z,56.83
2016-08-31T06:48:03.367Z,55.89
2016-08-31T06:49:03.342Z,55.34
2016-08-31T06:50:03.322Z,54.57
2016-08-31T06:51:02.589Z,53.91
2016-08-31T06:52:02.564Z,53.17
2016-08-31T06:53:03.235Z,52.1
2016-08-31T06:54:03.205Z,51.35
2016-08-31T06:55:03.210Z,50.5
2016-08-31T06:56:03.158Z,49.17
2016-08-31T06:57:03.127Z,47.76
2016-08-31T06:58:02.407Z,46.33
2016-08-31T06:59:03.078Z,45.28
2016-08-31T07:00:03.066Z,44.33
2016-08-31T07:01:03.027Z,43.48
2016-08-31T07:02:02.302Z,42.91
2016-08-31T07:03:02.980Z,42.72
2016-08-31T07:04:02.990Z,42.33
2016-08-31T07:05:02.230Z,42.33
2016-08-31T07:06:02.207Z,42.41
2016-08-31T07:07:02.192Z,41.93
2016-08-31T07:08:02.856Z,41.34
2016-08-31T07:09:02.833Z,41.06
2016-08-31T07:10:02.810Z,40.88
2016-08-31T07:11:02.794Z,39.82
2016-08-31T07:12:02.760Z,39.26
2016-08-31T07:13:02.742Z,39.26
2016-08-31T07:14:02.717Z,38.89
2016-08-31T07:15:02.007Z,39.28
2016-08-31T07:16:02.665Z,38.28
2016-08-31T07:17:01.948Z,37.52
2016-08-31T07:18:01.927Z,36.18
2016-08-31T07:19:01.901Z,34.92
2016-08-31T07:20:01.883Z,34.08
2016-08-31T07:21:02.553Z,33.22
2016-08-31T07:22:02.528Z,32.65
2016-08-31T07:23:02.508Z,32.82
2016-08-31T07:24:02.484Z,33.51
2016-08-31T07:25:02.460Z,34.28
2016-08-31T07:26:02.441Z,34.55
2016-08-31T07:27:02.416Z,35.41
2016-08-31T07:28:01.697Z,35.96
2016-08-31T07:29:01.677Z,36.82
2016-08-31T07:30:01.669Z,37.68
2016-08-31T07:31:02.323Z,38.34
2016-08-31T07:32:01.610Z,38.91
2016-08-31T07:33:02.278Z,40.34
2016-08-31T07:34:02.254Z,40.44
2016-08-31T07:35:01.540Z,40.06
2016-08-31T07:36:02.209Z,39.96
2016-08-31T07:37:02.185Z,39.49
2016-08-31T07:38:01.469Z,38.64
2016-08-31T07:39:02.148Z,37.1
2016-08-31T07:40:01.422Z,35.57
2016-08-31T07:41:02.095Z,34.06
2016-08-31T07:42:02.067Z,32.45
2016-08-31T07:43:02.048Z,30.62
2016-08-31T07:44:02.027Z,29.58
2016-08-31T07:45:02.002Z,28.72
2016-08-31T07:46:01.981Z,27.17
2016-08-31T07:47:01.262Z,26.42
2016-08-31T07:48:01.936Z,25.35
2016-08-31T07:49:01.914Z,24.87
2016-08-31T07:50:01.896Z,24.68
2016-08-31T07:51:01.876Z,24.29
2016-08-31T07:52:01.909Z,24.41
2016-08-31T07:53:01.833Z,23.04
2016-08-31T07:54:01.811Z,22.75
2016-08-31T07:55:01.789Z,22.56
2016-08-31T07:56:01.814Z,21.78
2016-08-31T07:57:01.748Z,20.8
2016-08-31T07:58:01.031Z,20.62
2016-08-31T07:59:01.707Z,20.12
2016-08-31T08:00:01.687Z,20.53
2016-08-31T08:01:00.973Z,20.62
2016-08-31T08:02:00.954Z,21.02
2016-08-31T08:03:00.958Z,20.91
2016-08-31T08:04:00.923Z,20.83
2016-08-31T08:05:02.599Z,21.79
2016-08-31T08:06:00.902Z,22.85
2016-08-31T08:07:00.899Z,23.22
2016-08-31T08:08:00.840Z,22.82
2016-08-31T08:09:01.511Z,22.55
2016-08-31T08:10:01.505Z,23.03
2016-08-31T08:11:01.470Z,25.07
2016-08-31T08:12:01.453Z,26.03
2016-08-31T08:13:01.431Z,26.79
2016-08-31T08:14:01.414Z,28.03
2016-08-31T08:15:01.393Z,28.31
2016-08-31T08:16:00.676Z,28.97
2016-08-31T08:17:01.380Z,29.45
2016-08-31T08:18:00.633Z,30.02
2016-08-31T08:19:01.380Z,30.1
2016-08-31T08:20:01.289Z,29.8
2016-08-31T08:21:01.269Z,28.28
2016-08-31T08:22:00.549Z,27.81
2016-08-31T08:23:00.531Z,27.14
2016-08-31T08:24:01.202Z,25.99
2016-08-31T08:25:00.489Z,24.46
2016-08-31T08:26:01.161Z,23.13
2016-08-31T08:27:01.141Z,21.48
2016-08-31T08:28:01.119Z,20.33
2016-08-31T08:29:01.100Z,18.88
2016-08-31T08:30:01.079Z,18.31
2016-08-31T08:31:01.058Z,17.63
2016-08-31T08:32:01.037Z,16.75
2016-08-31T08:33:00.321Z,15.67
2016-08-31T08:34:00.305Z,15.58
2016-08-31T08:35:00.280Z,15.58
2016-08-31T08:36:00.266Z,16.27
2016-08-31T08:37:00.941Z,17.03
2016-08-31T08:38:00.922Z,16.72
2016-08-31T08:39:00.211Z,16.64
2016-08-31T08:40:00.883Z,17.02
2016-08-31T08:41:00.865Z,16.34
2016-08-31T08:42:00.852Z,16.15
2016-08-31T08:43:00.131Z,16.06
2016-08-31T08:44:00.812Z,15.19
2016-08-31T08:45:00.789Z,14.21
2016-08-31T08:46:00.076Z,13.92
2016-08-31T08:47:00.761Z,13.14
2016-08-31T08:48:00.737Z,13.26
2016-08-31T08:49:00.719Z,12.07
2016-08-31T08:50:00.701Z,11.88
2016-08-31T08:51:00.691Z,11.38
2016-08-31T08:52:00.667Z,10.99
2016-08-31T08:53:00.646Z,10.6
2016-08-31T08:53:59.934Z,11
2016-08-31T08:55:00.617Z,10.8
2016-08-31T08:55:59.904Z,10.6
2016-08-31T08:56:59.885Z,10.8
2016-08-31T08:58:00.564Z,10.5
2016-08-31T08:59:00.549Z,10.5
2016-08-31T09:00:00.619Z,10.41
2016-08-31T09:01:00.520Z,10.5
2016-08-31T09:02:00.590Z,10.9
2016-08-31T09:03:00.666Z,10.31
2016-08-31T09:04:00.473Z,9.91
2016-08-31T09:05:00.458Z,9.91
2016-08-31T09:06:00.448Z,10.12
2016-08-31T09:06:59.733Z,10.12
2016-08-31T09:08:00.415Z,9.83
2016-08-31T09:09:00.400Z,9.33
2016-08-31T09:09:59.687Z,9.33
2016-08-31T09:11:00.368Z,9.23
2016-08-31T09:11:59.665Z,9.43
2016-08-31T09:13:00.336Z,9.43
2016-08-31T09:14:00.327Z,9.43
2016-08-31T09:15:00.309Z,9.23
2016-08-31T09:16:00.294Z,8.73
2016-08-31T09:17:00.286Z,8.54
2016-08-31T09:18:00.270Z,8.84
2016-08-31T09:19:00.254Z,9.04
2016-08-31T09:20:00.243Z,8.33
2016-08-31T09:21:00.279Z,8.34
2016-08-31T09:22:00.215Z,8.53
2016-08-31T09:23:00.199Z,8.92
2016-08-31T09:24:00.188Z,9.52
2016-08-31T09:24:59.476Z,10.11
2016-08-31T09:26:00.210Z,10.2
2016-08-31T09:27:00.149Z,10.79
2016-08-31T09:28:00.134Z,10.69
2016-08-31T09:29:00.236Z,11.08
2016-08-31T09:30:00.118Z,11.67
2016-08-31T09:31:00.109Z,12.26
2016-08-31T09:31:59.382Z,12.06
2016-08-31T09:33:00.065Z,11.67
2016-08-31T09:33:59.356Z,11.38
2016-08-31T09:35:02.088Z,10.88
2016-08-31T09:36:00.022Z,11.08
2016-08-31T09:36:59.313Z,10.99
2016-08-31T09:37:59.303Z,10.99
2016-08-31T09:38:59.982Z,10.8
2016-08-31T09:39:59.971Z,10.8
2016-08-31T09:40:59.964Z,11
2016-08-31T09:41:59.245Z,11
2016-08-31T09:42:59.926Z,10.7
2016-08-31T09:43:59.913Z,10.11
2016-08-31T09:44:59.907Z,10.01
2016-08-31T09:45:59.886Z,10.42
2016-08-31T09:46:59.174Z,10.52
2016-08-31T09:47:59.856Z,10.31
2016-08-31T09:48:59.852Z,10.22
2016-08-31T09:49:59.832Z,10.11
2016-08-31T09:50:59.816Z,9.22
2016-08-31T09:51:59.808Z,9.32
2016-08-31T09:52:59.787Z,9.52
2016-08-31T09:53:59.080Z,9.62
2016-08-31T09:54:59.089Z,9.62
2016-08-31T09:55:59.749Z,10.11
2016-08-31T09:56:59.736Z,10.21
2016-08-31T09:57:59.731Z,10.9
2016-08-31T09:58:59.712Z,11.49
2016-08-31T09:59:58.999Z,12.38
2016-08-31T10:00:58.986Z,13.46
2016-08-31T10:01:59.667Z,14.83
2016-08-31T10:02:58.961Z,14.71
2016-08-31T10:03:59.641Z,14.9
2016-08-31T10:04:58.929Z,14.79
2016-08-31T10:05:59.611Z,15.89
2016-08-31T10:06:58.900Z,17.65
2016-08-31T10:07:59.582Z,17.52
2016-08-31T10:08:59.563Z,17.42
2016-08-31T10:09:58.856Z,17.72
2016-08-31T10:10:59.533Z,17.82
2016-08-31T10:11:58.822Z,16.94
2016-08-31T10:12:59.505Z,16.06
2016-08-31T10:13:58.790Z,15.39
2016-08-31T10:14:59.468Z,14.71
2016-08-31T10:15:59.459Z,14.53
2016-08-31T10:16:59.439Z,14.04
2016-08-31T10:17:59.425Z,13.55
2016-08-31T10:18:58.712Z,13.66
2016-08-31T10:19:58.706Z,13.17
2016-08-31T10:20:59.379Z,12.88
2016-08-31T10:21:59.372Z,12.19
2016-08-31T10:22:59.348Z,11.9
2016-08-31T10:23:59.343Z,12
2016-08-31T10:24:59.320Z,11.9
2016-08-31T10:25:59.304Z,11.61
2016-08-31T10:26:59.296Z,11
2016-08-31T10:27:59.277Z,11.8
2016-08-31T10:28:59.264Z,11.4
2016-08-31T10:29:58.551Z,11.3
2016-08-31T10:30:59.238Z,12.18
2016-08-31T10:31:59.221Z,11.88
2016-08-31T10:32:59.205Z,12.88
2016-08-31T10:33:59.191Z,12.68
2016-08-31T10:34:59.176Z,12.78
2016-08-31T10:35:59.172Z,12.47
2016-08-31T10:36:58.454Z,12.88
2016-08-31T10:37:58.439Z,11.88
2016-08-31T10:38:59.136Z,11.68
2016-08-31T10:39:58.408Z,11.68
2016-08-31T10:40:59.179Z,11.88
2016-08-31T10:41:59.077Z,12.48
2016-08-31T10:42:59.059Z,12.48
2016-08-31T10:43:58.350Z,12.59
2016-08-31T10:44:59.037Z,12.48
2016-08-31T10:45:59.018Z,12.79
2016-08-31T10:46:59.006Z,12.58
2016-08-31T10:47:58.301Z,12.08
2016-08-31T10:48:58.972Z,12.29
2016-08-31T10:49:58.965Z,11.69
2016-08-31T10:50:58.943Z,11.6
2016-08-31T10:51:58.231Z,11.59
2016-08-31T10:52:58.917Z,11.58
2016-08-31T10:53:58.898Z,11.88
2016-08-31T10:54:58.880Z,11.88
2016-08-31T10:55:58.866Z,11.79
2016-08-31T10:56:58.153Z,11.79
2016-08-31T10:57:58.834Z,11.79
2016-08-31T10:58:58.820Z,11.59
2016-08-31T10:59:58.804Z,12.29
2016-08-31T11:00:58.090Z,11.89
2016-08-31T11:01:58.074Z,12.18
2016-08-31T11:02:58.756Z,11.99
2016-08-31T11:03:58.741Z,12.18
2016-08-31T11:04:58.724Z,12.78
2016-08-31T11:05:58.737Z,12.88
2016-08-31T11:06:58.693Z,12.97
2016-08-31T11:07:58.682Z,13.07
2016-08-31T11:08:58.666Z,13.67
2016-08-31T11:09:57.948Z,13.26
2016-08-31T11:10:58.632Z,13.65
2016-08-31T11:11:58.620Z,14.44
2016-08-31T11:12:58.603Z,14.43
2016-08-31T11:13:58.581Z,14.92
2016-08-31T11:14:58.572Z,15.8
2016-08-31T11:15:58.556Z,16.86
2016-08-31T11:16:58.530Z,17.73
2016-08-31T11:17:57.831Z,19.19
2016-08-31T11:18:58.499Z,19.85
2016-08-31T11:19:58.559Z,20.83
2016-08-31T11:20:58.458Z,21.01
2016-08-31T11:21:58.447Z,21.79
2016-08-31T11:22:58.429Z,21.3
2016-08-31T11:23:58.407Z,21.98
2016-08-31T11:24:58.384Z,22.67
2016-08-31T11:25:58.366Z,22.96
2016-08-31T11:26:58.351Z,23.25
2016-08-31T11:27:58.332Z,24.52
2016-08-31T11:28:58.315Z,23.91
2016-08-31T11:29:58.302Z,24.98
2016-08-31T11:30:57.576Z,25.95
2016-08-31T11:31:57.553Z,26.43
2016-08-31T11:32:58.239Z,26.7
2016-08-31T11:33:58.217Z,27.08
2016-08-31T11:34:58.196Z,28.05
2016-08-31T11:35:58.177Z,28.63
2016-08-31T11:36:58.174Z,29.59
2016-08-31T11:37:58.139Z,29.97
2016-08-31T11:38:57.418Z,30.74
2016-08-31T11:39:58.097Z,31.51
2016-08-31T11:40:58.069Z,31.88
2016-08-31T11:41:57.350Z,32.66
2016-08-31T11:42:57.329Z,33.62
2016-08-31T11:43:58.006Z,33.92
2016-08-31T11:44:57.983Z,34.09
2016-08-31T11:45:57.976Z,35.06
2016-08-31T11:46:57.939Z,34.77
2016-08-31T11:47:57.919Z,35.35
2016-08-31T11:48:57.201Z,35.64
2016-08-31T11:49:57.875Z,35.82
2016-08-31T11:50:57.848Z,35.92
2016-08-31T11:51:57.129Z,36.68
2016-08-31T11:52:57.806Z,36.88
2016-08-31T11:53:57.784Z,37.37
2016-08-31T11:54:57.060Z,37.93
2016-08-31T11:55:57.736Z,38.32
2016-08-31T11:56:57.713Z,38.81
2016-08-31T11:57:56.998Z,38.98
2016-08-31T11:58:56.968Z,38.89
2016-08-31T11:59:56.946Z,39.37
2016-08-31T12:00:57.652Z,39.18
2016-08-31T12:01:56.908Z,39.67
2016-08-31T12:02:56.876Z,39.96
2016-08-31T12:03:57.554Z,38.98
2016-08-31T12:04:57.530Z,39.45
2016-08-31T12:05:57.500Z,39.65
2016-08-31T12:06:57.485Z,39.65
2016-08-31T12:07:57.451Z,40.21
2016-08-31T12:08:57.431Z,39.92
2016-08-31T12:09:56.709Z,40.7
2016-08-31T12:10:56.694Z,41.38
2016-08-31T12:11:56.661Z,40.8
2016-08-31T12:12:56.636Z,41.26
2016-08-31T12:13:57.308Z,41.36
2016-08-31T12:14:57.285Z,41.46
2016-08-31T12:15:57.261Z,41.65
2016-08-31T12:16:57.238Z,42.04
2016-08-31T12:17:56.519Z,41.85
2016-08-31T12:18:57.188Z,42.24
2016-08-31T12:19:57.162Z,42.6
2016-08-31T12:20:56.443Z,42.8
2016-08-31T12:21:57.146Z,42.6
2016-08-31T12:22:57.087Z,42.9
2016-08-31T12:23:57.064Z,42.5
2016-08-31T12:24:57.040Z,42.6
2016-08-31T12:25:56.336Z,43.16
2016-08-31T12:26:56.992Z,43.16
2016-08-31T12:27:56.273Z,43.55
2016-08-31T12:28:56.944Z,43.75
2016-08-31T12:29:56.922Z,43.85
2016-08-31T12:30:56.897Z,43.75
2016-08-31T12:31:56.865Z,43.85
2016-08-31T12:32:56.156Z,43.85
2016-08-31T12:33:56.120Z,43.95
2016-08-31T12:34:56.795Z,44.14
2016-08-31T12:35:56.776Z,43.75
2016-08-31T12:36:57.052Z,44.33
2016-08-31T12:37:56.759Z,44.53
2016-08-31T12:38:56.694Z,44.99
2016-08-31T12:39:56.668Z,44.89
2016-08-31T12:40:55.949Z,45.18
2016-08-31T12:41:56.626Z,45.87
2016-08-31T12:42:57.044Z,45.97
2016-08-31T12:43:56.628Z,45.97
2016-08-31T12:44:56.548Z,45.38
2016-08-31T12:45:55.823Z,44.99
2016-08-31T12:46:56.492Z,44.6
2016-08-31T12:47:55.770Z,45.09
2016-08-31T12:48:56.451Z,45.18
2016-08-31T12:49:56.421Z,45.67
2016-08-31T12:50:56.396Z,44.99
2016-08-31T12:51:56.367Z,45.57
2016-08-31T12:52:56.349Z,45.57
2016-08-31T12:53:56.318Z,45.28
2016-08-31T12:55:40.432Z,45.28
2016-08-31T12:55:59.758Z,46.06